sensor_id;sensor_type;location;lat;lon;timestamp;temperature;humidity
25440;DHT22;13365;52.208;5.488;2022-10-16T00:00:31;18.00;93.80
25440;DHT22;13365;52.208;5.488;2022-10-16T00:02:57;18.00;93.80
25440;DHT22;13365;52.208;5.488;2022-10-16T00:05:22;18.00;93.80
25440;DHT22;13365;52.208;5.488;2022-10-16T00:07:48;18.00;94.00
25440;DHT22;13365;52.208;5.488;2022-10-16T00:10:13;18.00;93.80
25440;DHT22;13365;52.208;5.488;2022-10-16T00:12:39;18.00;93.80
25440;DHT22;13365;52.208;5.488;2022-10-16T00:15:05;18.00;93.90
25440;DHT22;13365;52.208;5.488;2022-10-16T00:17:31;17.80;94.10
25440;DHT22;13365;52.208;5.488;2022-10-16T00:19:57;17.70;94.40
25440;DHT22;13365;52.208;5.488;2022-10-16T00:22:22;17.70;94.40
25440;DHT22;13365;52.208;5.488;2022-10-16T00:24:48;17.70;94.50
25440;DHT22;13365;52.208;5.488;2022-10-16T00:27:14;17.70;94.60
25440;DHT22;13365;52.208;5.488;2022-10-16T00:29:39;17.80;94.60
25440;DHT22;13365;52.208;5.488;2022-10-16T00:32:05;17.70;94.50
25440;DHT22;13365;52.208;5.488;2022-10-16T00:34:30;17.60;94.50
25440;DHT22;13365;52.208;5.488;2022-10-16T00:36:56;17.60;94.70
25440;DHT22;13365;52.208;5.488;2022-10-16T00:39:21;17.60;94.70
25440;DHT22;13365;52.208;5.488;2022-10-16T00:41:47;17.60;94.60
25440;DHT22;13365;52.208;5.488;2022-10-16T00:47:13;17.60;94.90
25440;DHT22;13365;52.208;5.488;2022-10-16T00:49:41;17.60;94.70
25440;DHT22;13365;52.208;5.488;2022-10-16T00:52:06;17.60;94.70
25440;DHT22;13365;52.208;5.488;2022-10-16T00:54:32;17.70;94.60
25440;DHT22;13365;52.208;5.488;2022-10-16T00:57:01;17.60;94.70
25440;DHT22;13365;52.208;5.488;2022-10-16T00:59:31;17.60;94.80
25440;DHT22;13365;52.208;5.488;2022-10-16T01:01:58;17.60;95.00
25440;DHT22;13365;52.208;5.488;2022-10-16T01:04:25;17.60;95.00
25440;DHT22;13365;52.208;5.488;2022-10-16T01:12:52;17.60;95.30
25440;DHT22;13365;52.208;5.488;2022-10-16T01:15:42;17.50;95.50
25440;DHT22;13365;52.208;5.488;2022-10-16T01:18:16;17.50;95.40
25440;DHT22;13365;52.208;5.488;2022-10-16T01:20:57;17.50;95.60
25440;DHT22;13365;52.208;5.488;2022-10-16T01:28:59;17.40;96.00
25440;DHT22;13365;52.208;5.488;2022-10-16T01:31:31;17.50;96.10
25440;DHT22;13365;52.208;5.488;2022-10-16T01:34:16;17.50;96.10
25440;DHT22;13365;52.208;5.488;2022-10-16T01:36:52;17.30;96.20
25440;DHT22;13365;52.208;5.488;2022-10-16T01:39:23;17.40;96.50
25440;DHT22;13365;52.208;5.488;2022-10-16T01:41:54;17.70;96.40
25440;DHT22;13365;52.208;5.488;2022-10-16T01:44:41;17.90;95.60
25440;DHT22;13365;52.208;5.488;2022-10-16T01:47:10;17.90;95.40
25440;DHT22;13365;52.208;5.488;2022-10-16T01:49:37;18.20;95.20
25440;DHT22;13365;52.208;5.488;2022-10-16T01:52:07;18.40;95.00
25440;DHT22;13365;52.208;5.488;2022-10-16T01:54:35;18.40;94.70
25440;DHT22;13365;52.208;5.488;2022-10-16T01:57:04;18.10;94.90
25440;DHT22;13365;52.208;5.488;2022-10-16T01:59:31;18.10;95.20
25440;DHT22;13365;52.208;5.488;2022-10-16T02:02:06;18.20;95.10
25440;DHT22;13365;52.208;5.488;2022-10-16T02:04:57;18.20;95.30
25440;DHT22;13365;52.208;5.488;2022-10-16T02:07:24;18.30;95.00
25440;DHT22;13365;52.208;5.488;2022-10-16T02:09:50;18.40;95.00
25440;DHT22;13365;52.208;5.488;2022-10-16T02:12:31;18.50;94.80
25440;DHT22;13365;52.208;5.488;2022-10-16T02:14:57;18.50;94.40
25440;DHT22;13365;52.208;5.488;2022-10-16T02:17:24;18.50;94.60
25440;DHT22;13365;52.208;5.488;2022-10-16T02:19:52;18.40;94.90
25440;DHT22;13365;52.208;5.488;2022-10-16T02:22:32;18.60;94.80
25440;DHT22;13365;52.208;5.488;2022-10-16T02:25:06;18.70;94.30
25440;DHT22;13365;52.208;5.488;2022-10-16T02:30:10;18.60;94.50
25440;DHT22;13365;52.208;5.488;2022-10-16T02:32:40;18.60;94.50
25440;DHT22;13365;52.208;5.488;2022-10-16T02:35:07;18.50;94.70
25440;DHT22;13365;52.208;5.488;2022-10-16T02:37:33;18.50;94.70
25440;DHT22;13365;52.208;5.488;2022-10-16T02:40:00;18.40;94.90
25440;DHT22;13365;52.208;5.488;2022-10-16T02:42:36;18.40;94.80
25440;DHT22;13365;52.208;5.488;2022-10-16T02:45:03;18.40;94.80
25440;DHT22;13365;52.208;5.488;2022-10-16T02:47:29;18.50;94.70
25440;DHT22;13365;52.208;5.488;2022-10-16T02:49:54;18.40;94.70
25440;DHT22;13365;52.208;5.488;2022-10-16T02:52:20;18.30;94.70
25440;DHT22;13365;52.208;5.488;2022-10-16T02:54:45;18.30;95.00
25440;DHT22;13365;52.208;5.488;2022-10-16T02:57:11;18.30;95.20
25440;DHT22;13365;52.208;5.488;2022-10-16T02:59:37;18.30;95.10
25440;DHT22;13365;52.208;5.488;2022-10-16T03:02:03;18.30;95.00
25440;DHT22;13365;52.208;5.488;2022-10-16T03:04:28;18.30;95.10
25440;DHT22;13365;52.208;5.488;2022-10-16T03:06:54;18.30;95.20
25440;DHT22;13365;52.208;5.488;2022-10-16T03:09:19;18.30;95.40
25440;DHT22;13365;52.208;5.488;2022-10-16T03:11:45;18.30;95.30
25440;DHT22;13365;52.208;5.488;2022-10-16T03:14:10;18.40;95.30
25440;DHT22;13365;52.208;5.488;2022-10-16T03:16:36;18.30;95.20
25440;DHT22;13365;52.208;5.488;2022-10-16T03:19:02;18.20;95.30
25440;DHT22;13365;52.208;5.488;2022-10-16T03:21:27;18.30;95.20
25440;DHT22;13365;52.208;5.488;2022-10-16T03:23:53;18.30;95.20
25440;DHT22;13365;52.208;5.488;2022-10-16T03:26:18;18.30;95.20
25440;DHT22;13365;52.208;5.488;2022-10-16T03:28:44;18.40;95.00
25440;DHT22;13365;52.208;5.488;2022-10-16T03:31:09;18.50;94.90
25440;DHT22;13365;52.208;5.488;2022-10-16T03:33:35;18.40;95.10
25440;DHT22;13365;52.208;5.488;2022-10-16T03:36:00;18.40;94.90
25440;DHT22;13365;52.208;5.488;2022-10-16T03:38:26;18.40;94.90
25440;DHT22;13365;52.208;5.488;2022-10-16T03:40:51;18.40;94.90
25440;DHT22;13365;52.208;5.488;2022-10-16T03:43:17;18.40;94.90
25440;DHT22;13365;52.208;5.488;2022-10-16T03:45:43;18.30;94.90
25440;DHT22;13365;52.208;5.488;2022-10-16T03:48:09;18.20;95.20
25440;DHT22;13365;52.208;5.488;2022-10-16T03:50:34;18.10;95.30
25440;DHT22;13365;52.208;5.488;2022-10-16T03:53:00;18.10;95.50
25440;DHT22;13365;52.208;5.488;2022-10-16T03:55:25;18.10;95.50
25440;DHT22;13365;52.208;5.488;2022-10-16T03:57:51;18.20;95.50
25440;DHT22;13365;52.208;5.488;2022-10-16T04:00:16;18.10;95.40
25440;DHT22;13365;52.208;5.488;2022-10-16T04:02:42;18.20;95.60
25440;DHT22;13365;52.208;5.488;2022-10-16T04:05:08;18.00;95.80
25440;DHT22;13365;52.208;5.488;2022-10-16T04:07:33;17.90;95.80
25440;DHT22;13365;52.208;5.488;2022-10-16T04:09:59;17.80;95.90
25440;DHT22;13365;52.208;5.488;2022-10-16T04:12:26;17.80;96.10
25440;DHT22;13365;52.208;5.488;2022-10-16T04:14:51;17.60;96.30
25440;DHT22;13365;52.208;5.488;2022-10-16T04:17:17;17.70;96.30
25440;DHT22;13365;52.208;5.488;2022-10-16T04:19:42;17.80;96.20
25440;DHT22;13365;52.208;5.488;2022-10-16T04:22:08;17.90;96.10
25440;DHT22;13365;52.208;5.488;2022-10-16T04:24:36;17.90;95.90
25440;DHT22;13365;52.208;5.488;2022-10-16T04:27:02;18.00;95.90
25440;DHT22;13365;52.208;5.488;2022-10-16T04:29:27;17.90;95.80
25440;DHT22;13365;52.208;5.488;2022-10-16T04:31:53;17.80;96.00
25440;DHT22;13365;52.208;5.488;2022-10-16T04:34:19;17.70;96.40
25440;DHT22;13365;52.208;5.488;2022-10-16T04:36:47;17.70;96.30
25440;DHT22;13365;52.208;5.488;2022-10-16T04:39:13;17.50;96.60
25440;DHT22;13365;52.208;5.488;2022-10-16T04:41:38;17.50;96.80
25440;DHT22;13365;52.208;5.488;2022-10-16T04:44:04;17.70;96.70
25440;DHT22;13365;52.208;5.488;2022-10-16T04:46:30;17.60;96.70
25440;DHT22;13365;52.208;5.488;2022-10-16T04:48:55;17.70;96.50
25440;DHT22;13365;52.208;5.488;2022-10-16T04:51:21;17.80;96.30
25440;DHT22;13365;52.208;5.488;2022-10-16T04:53:46;17.90;96.20
25440;DHT22;13365;52.208;5.488;2022-10-16T04:56:12;17.90;96.10
25440;DHT22;13365;52.208;5.488;2022-10-16T04:58:37;17.80;96.60
25440;DHT22;13365;52.208;5.488;2022-10-16T05:01:03;17.90;96.30
25440;DHT22;13365;52.208;5.488;2022-10-16T05:03:28;17.70;96.60
25440;DHT22;13365;52.208;5.488;2022-10-16T05:05:54;17.80;96.70
25440;DHT22;13365;52.208;5.488;2022-10-16T05:08:20;17.80;96.60
25440;DHT22;13365;52.208;5.488;2022-10-16T05:10:45;17.90;96.20
25440;DHT22;13365;52.208;5.488;2022-10-16T05:13:11;18.00;96.20
25440;DHT22;13365;52.208;5.488;2022-10-16T05:15:37;18.00;96.00
25440;DHT22;13365;52.208;5.488;2022-10-16T05:18:03;17.90;96.30
25440;DHT22;13365;52.208;5.488;2022-10-16T05:20:29;17.90;96.60
25440;DHT22;13365;52.208;5.488;2022-10-16T05:22:54;17.90;96.30
25440;DHT22;13365;52.208;5.488;2022-10-16T05:25:20;17.80;96.30
25440;DHT22;13365;52.208;5.488;2022-10-16T05:27:49;18.10;96.30
25440;DHT22;13365;52.208;5.488;2022-10-16T05:30:16;18.00;96.10
25440;DHT22;13365;52.208;5.488;2022-10-16T05:32:41;17.90;96.30
25440;DHT22;13365;52.208;5.488;2022-10-16T05:35:07;18.00;96.30
25440;DHT22;13365;52.208;5.488;2022-10-16T05:37:32;18.00;96.10
25440;DHT22;13365;52.208;5.488;2022-10-16T05:39:58;18.10;96.20
25440;DHT22;13365;52.208;5.488;2022-10-16T05:42:24;18.10;95.80
25440;DHT22;13365;52.208;5.488;2022-10-16T05:44:49;18.20;96.00
25440;DHT22;13365;52.208;5.488;2022-10-16T05:47:15;18.10;96.00
25440;DHT22;13365;52.208;5.488;2022-10-16T05:49:40;18.10;95.90
25440;DHT22;13365;52.208;5.488;2022-10-16T05:52:06;18.10;96.00
25440;DHT22;13365;52.208;5.488;2022-10-16T05:54:31;18.20;96.00
25440;DHT22;13365;52.208;5.488;2022-10-16T05:56:57;18.10;96.10
25440;DHT22;13365;52.208;5.488;2022-10-16T05:59:22;18.10;96.00
25440;DHT22;13365;52.208;5.488;2022-10-16T06:01:48;18.20;96.00
25440;DHT22;13365;52.208;5.488;2022-10-16T06:04:14;18.20;96.20
25440;DHT22;13365;52.208;5.488;2022-10-16T06:06:39;18.20;96.10
25440;DHT22;13365;52.208;5.488;2022-10-16T06:09:05;18.20;96.10
25440;DHT22;13365;52.208;5.488;2022-10-16T06:11:32;18.20;96.10
25440;DHT22;13365;52.208;5.488;2022-10-16T06:14:00;18.20;96.10
25440;DHT22;13365;52.208;5.488;2022-10-16T06:16:28;18.20;96.10
25440;DHT22;13365;52.208;5.488;2022-10-16T06:18:55;18.30;96.30
25440;DHT22;13365;52.208;5.488;2022-10-16T06:21:26;18.20;96.20
25440;DHT22;13365;52.208;5.488;2022-10-16T06:23:52;18.10;96.30
25440;DHT22;13365;52.208;5.488;2022-10-16T06:26:21;18.20;96.80
25440;DHT22;13365;52.208;5.488;2022-10-16T06:28:47;18.10;96.50
25440;DHT22;13365;52.208;5.488;2022-10-16T06:31:13;18.10;96.40
25440;DHT22;13365;52.208;5.488;2022-10-16T06:33:39;18.30;96.50
25440;DHT22;13365;52.208;5.488;2022-10-16T06:36:07;18.30;96.40
25440;DHT22;13365;52.208;5.488;2022-10-16T06:38:34;18.50;96.30
25440;DHT22;13365;52.208;5.488;2022-10-16T06:41:00;18.50;96.20
25440;DHT22;13365;52.208;5.488;2022-10-16T06:43:26;18.40;96.20
25440;DHT22;13365;52.208;5.488;2022-10-16T06:45:54;18.30;96.50
25440;DHT22;13365;52.208;5.488;2022-10-16T06:48:20;18.30;96.50
25440;DHT22;13365;52.208;5.488;2022-10-16T06:51:00;18.30;96.50
25440;DHT22;13365;52.208;5.488;2022-10-16T06:53:29;18.30;96.60
25440;DHT22;13365;52.208;5.488;2022-10-16T06:55:55;18.30;96.60
25440;DHT22;13365;52.208;5.488;2022-10-16T06:58:21;18.30;96.60
25440;DHT22;13365;52.208;5.488;2022-10-16T07:00:47;18.20;96.70
25440;DHT22;13365;52.208;5.488;2022-10-16T07:03:13;18.10;96.90
25440;DHT22;13365;52.208;5.488;2022-10-16T07:05:40;18.10;96.80
25440;DHT22;13365;52.208;5.488;2022-10-16T07:08:05;17.90;97.20
25440;DHT22;13365;52.208;5.488;2022-10-16T07:10:32;17.80;97.40
25440;DHT22;13365;52.208;5.488;2022-10-16T07:12:57;17.80;97.70
25440;DHT22;13365;52.208;5.488;2022-10-16T07:15:24;17.70;97.70
25440;DHT22;13365;52.208;5.488;2022-10-16T07:17:49;17.70;97.90
25440;DHT22;13365;52.208;5.488;2022-10-16T07:20:15;17.80;97.80
25440;DHT22;13365;52.208;5.488;2022-10-16T07:22:41;17.80;97.70
25440;DHT22;13365;52.208;5.488;2022-10-16T07:25:07;17.80;97.70
25440;DHT22;13365;52.208;5.488;2022-10-16T07:27:32;17.70;98.00
25440;DHT22;13365;52.208;5.488;2022-10-16T07:29:58;17.70;98.50
25440;DHT22;13365;52.208;5.488;2022-10-16T07:32:23;17.70;97.90
25440;DHT22;13365;52.208;5.488;2022-10-16T07:34:51;17.80;98.20
25440;DHT22;13365;52.208;5.488;2022-10-16T07:37:16;17.80;98.00
25440;DHT22;13365;52.208;5.488;2022-10-16T07:39:42;18.00;97.80
25440;DHT22;13365;52.208;5.488;2022-10-16T07:42:11;17.90;97.80
25440;DHT22;13365;52.208;5.488;2022-10-16T07:44:36;18.00;97.40
25440;DHT22;13365;52.208;5.488;2022-10-16T07:47:02;18.00;97.40
25440;DHT22;13365;52.208;5.488;2022-10-16T07:49:28;18.00;97.20
25440;DHT22;13365;52.208;5.488;2022-10-16T07:51:53;17.90;97.20
25440;DHT22;13365;52.208;5.488;2022-10-16T07:54:19;17.90;97.30
25440;DHT22;13365;52.208;5.488;2022-10-16T07:56:44;18.00;97.00
25440;DHT22;13365;52.208;5.488;2022-10-16T07:59:10;18.10;96.90
25440;DHT22;13365;52.208;5.488;2022-10-16T08:01:36;18.30;96.90
25440;DHT22;13365;52.208;5.488;2022-10-16T08:04:01;18.30;96.50
25440;DHT22;13365;52.208;5.488;2022-10-16T08:06:27;18.30;96.30
25440;DHT22;13365;52.208;5.488;2022-10-16T08:08:52;18.30;96.50
25440;DHT22;13365;52.208;5.488;2022-10-16T08:11:18;18.30;96.60
25440;DHT22;13365;52.208;5.488;2022-10-16T08:13:47;18.40;96.70
25440;DHT22;13365;52.208;5.488;2022-10-16T08:16:12;18.40;96.70
25440;DHT22;13365;52.208;5.488;2022-10-16T08:18:39;18.50;97.00
25440;DHT22;13365;52.208;5.488;2022-10-16T08:21:06;18.50;97.10
25440;DHT22;13365;52.208;5.488;2022-10-16T08:23:33;18.50;96.80
25440;DHT22;13365;52.208;5.488;2022-10-16T08:26:04;18.50;97.10
25440;DHT22;13365;52.208;5.488;2022-10-16T08:28:30;18.50;97.20
25440;DHT22;13365;52.208;5.488;2022-10-16T08:30:55;18.50;97.80
25440;DHT22;13365;52.208;5.488;2022-10-16T08:33:22;18.60;97.50
25440;DHT22;13365;52.208;5.488;2022-10-16T08:35:54;18.80;97.20
25440;DHT22;13365;52.208;5.488;2022-10-16T08:38:20;18.90;97.60
25440;DHT22;13365;52.208;5.488;2022-10-16T08:40:45;19.20;97.00
25440;DHT22;13365;52.208;5.488;2022-10-16T08:46:28;19.30;96.50
25440;DHT22;13365;52.208;5.488;2022-10-16T08:48:59;19.40;96.30
25440;DHT22;13365;52.208;5.488;2022-10-16T08:51:36;19.50;96.60
25440;DHT22;13365;52.208;5.488;2022-10-16T08:56:51;19.80;95.60
25440;DHT22;13365;52.208;5.488;2022-10-16T08:59:19;19.80;96.10
25440;DHT22;13365;52.208;5.488;2022-10-16T09:01:47;20.00;95.40
25440;DHT22;13365;52.208;5.488;2022-10-16T09:06:59;20.30;95.20
25440;DHT22;13365;52.208;5.488;2022-10-16T09:12:16;20.60;94.10
25440;DHT22;13365;52.208;5.488;2022-10-16T09:15:22;20.70;94.70
25440;DHT22;13365;52.208;5.488;2022-10-16T09:18:10;20.90;93.60
25440;DHT22;13365;52.208;5.488;2022-10-16T09:23:18;21.30;93.10
25440;DHT22;13365;52.208;5.488;2022-10-16T09:25:47;21.40;93.50
25440;DHT22;13365;52.208;5.488;2022-10-16T09:28:13;21.50;92.90
25440;DHT22;13365;52.208;5.488;2022-10-16T09:30:40;21.50;93.10
25440;DHT22;13365;52.208;5.488;2022-10-16T09:33:06;21.60;92.80
25440;DHT22;13365;52.208;5.488;2022-10-16T09:35:42;21.60;93.00
25440;DHT22;13365;52.208;5.488;2022-10-16T09:38:09;21.70;92.90
25440;DHT22;13365;52.208;5.488;2022-10-16T09:40:39;21.80;93.00
25440;DHT22;13365;52.208;5.488;2022-10-16T09:43:26;21.80;92.50
25440;DHT22;13365;52.208;5.488;2022-10-16T09:48:50;22.00;91.40
25440;DHT22;13365;52.208;5.488;2022-10-16T09:51:29;22.00;91.40
25440;DHT22;13365;52.208;5.488;2022-10-16T09:53:57;21.80;91.00
25440;DHT22;13365;52.208;5.488;2022-10-16T09:56:33;21.90;91.30
25440;DHT22;13365;52.208;5.488;2022-10-16T09:59:02;21.80;90.60
25440;DHT22;13365;52.208;5.488;2022-10-16T10:01:40;21.70;91.30
25440;DHT22;13365;52.208;5.488;2022-10-16T10:04:06;21.70;91.30
25440;DHT22;13365;52.208;5.488;2022-10-16T10:06:40;21.50;90.70
25440;DHT22;13365;52.208;5.488;2022-10-16T10:09:29;21.70;91.30
25440;DHT22;13365;52.208;5.488;2022-10-16T10:12:01;21.80;91.60
25440;DHT22;13365;52.208;5.488;2022-10-16T10:17:10;21.90;90.30
25440;DHT22;13365;52.208;5.488;2022-10-16T10:19:47;22.10;90.80
25440;DHT22;13365;52.208;5.488;2022-10-16T10:22:21;22.00;91.00
25440;DHT22;13365;52.208;5.488;2022-10-16T10:27:40;22.20;89.70
25440;DHT22;13365;52.208;5.488;2022-10-16T10:33:31;22.20;88.70
25440;DHT22;13365;52.208;5.488;2022-10-16T10:38:58;22.20;89.60
25440;DHT22;13365;52.208;5.488;2022-10-16T10:49:39;21.80;89.30
25440;DHT22;13365;52.208;5.488;2022-10-16T11:00:30;22.00;85.70
25440;DHT22;13365;52.208;5.488;2022-10-16T11:03:20;22.10;88.60
25440;DHT22;13365;52.208;5.488;2022-10-16T11:06:46;22.10;87.90
25440;DHT22;13365;52.208;5.488;2022-10-16T11:09:24;22.30;87.30
25440;DHT22;13365;52.208;5.488;2022-10-16T11:12:02;22.60;87.90
25440;DHT22;13365;52.208;5.488;2022-10-16T11:14:43;22.60;87.20
25440;DHT22;13365;52.208;5.488;2022-10-16T11:17:31;22.80;87.10
25440;DHT22;13365;52.208;5.488;2022-10-16T11:20:18;22.80;85.90
25440;DHT22;13365;52.208;5.488;2022-10-16T11:22:58;22.80;86.50
25440;DHT22;13365;52.208;5.488;2022-10-16T11:25:30;22.90;85.30
25440;DHT22;13365;52.208;5.488;2022-10-16T11:30:55;23.10;84.70
25440;DHT22;13365;52.208;5.488;2022-10-16T11:33:46;23.20;83.70
25440;DHT22;13365;52.208;5.488;2022-10-16T11:36:29;23.30;84.00
25440;DHT22;13365;52.208;5.488;2022-10-16T11:39:25;23.40;83.50
25440;DHT22;13365;52.208;5.488;2022-10-16T11:42:16;23.20;81.30
25440;DHT22;13365;52.208;5.488;2022-10-16T11:47:35;23.00;83.40
25440;DHT22;13365;52.208;5.488;2022-10-16T11:55:40;22.70;82.10
25440;DHT22;13365;52.208;5.488;2022-10-16T12:00:47;22.30;83.60
25440;DHT22;13365;52.208;5.488;2022-10-16T12:03:21;22.10;81.80
25440;DHT22;13365;52.208;5.488;2022-10-16T12:08:20;22.00;84.20
25440;DHT22;13365;52.208;5.488;2022-10-16T12:10:47;22.10;82.70
25440;DHT22;13365;52.208;5.488;2022-10-16T12:13:32;22.00;82.30
25440;DHT22;13365;52.208;5.488;2022-10-16T12:16:21;22.40;83.10
25440;DHT22;13365;52.208;5.488;2022-10-16T12:18:48;22.60;82.20
25440;DHT22;13365;52.208;5.488;2022-10-16T12:21:15;22.80;82.00
25440;DHT22;13365;52.208;5.488;2022-10-16T12:23:52;22.80;81.40
25440;DHT22;13365;52.208;5.488;2022-10-16T12:26:29;22.80;78.20
25440;DHT22;13365;52.208;5.488;2022-10-16T12:29:12;22.80;79.70
25440;DHT22;13365;52.208;5.488;2022-10-16T12:31:46;22.80;79.40
25440;DHT22;13365;52.208;5.488;2022-10-16T12:34:23;22.80;76.50
25440;DHT22;13365;52.208;5.488;2022-10-16T12:36:50;22.90;75.20
25440;DHT22;13365;52.208;5.488;2022-10-16T12:39:24;22.60;76.40
25440;DHT22;13365;52.208;5.488;2022-10-16T12:42:05;22.60;77.70
25440;DHT22;13365;52.208;5.488;2022-10-16T12:44:33;22.70;79.50
25440;DHT22;13365;52.208;5.488;2022-10-16T12:47:00;22.90;80.00
25440;DHT22;13365;52.208;5.488;2022-10-16T12:49:31;23.20;80.20
25440;DHT22;13365;52.208;5.488;2022-10-16T12:51:57;23.10;78.40
25440;DHT22;13365;52.208;5.488;2022-10-16T12:54:28;23.20;79.80
25440;DHT22;13365;52.208;5.488;2022-10-16T13:00:12;23.20;77.10
25440;DHT22;13365;52.208;5.488;2022-10-16T13:11:00;23.00;77.10
25440;DHT22;13365;52.208;5.488;2022-10-16T13:16:32;23.20;76.20
25440;DHT22;13365;52.208;5.488;2022-10-16T13:19:14;23.20;79.30
25440;DHT22;13365;52.208;5.488;2022-10-16T13:24:38;23.30;77.50
25440;DHT22;13365;52.208;5.488;2022-10-16T13:27:17;23.30;76.20
25440;DHT22;13365;52.208;5.488;2022-10-16T13:29:52;23.10;77.40
25440;DHT22;13365;52.208;5.488;2022-10-16T13:32:20;22.80;77.70
25440;DHT22;13365;52.208;5.488;2022-10-16T13:34:48;22.80;79.60
25440;DHT22;13365;52.208;5.488;2022-10-16T13:37:21;22.80;79.10
25440;DHT22;13365;52.208;5.488;2022-10-16T13:39:47;22.90;80.10
25440;DHT22;13365;52.208;5.488;2022-10-16T13:42:20;23.10;76.40
25440;DHT22;13365;52.208;5.488;2022-10-16T13:44:52;23.00;78.30
25440;DHT22;13365;52.208;5.488;2022-10-16T13:47:24;22.90;74.90
25440;DHT22;13365;52.208;5.488;2022-10-16T13:50:06;22.80;74.80
25440;DHT22;13365;52.208;5.488;2022-10-16T13:52:34;22.90;75.20
25440;DHT22;13365;52.208;5.488;2022-10-16T13:55:00;22.90;75.10
25440;DHT22;13365;52.208;5.488;2022-10-16T13:57:25;23.00;77.50
25440;DHT22;13365;52.208;5.488;2022-10-16T13:59:51;23.00;76.40
25440;DHT22;13365;52.208;5.488;2022-10-16T14:04:46;23.30;75.40
25440;DHT22;13365;52.208;5.488;2022-10-16T14:07:28;23.40;77.20
25440;DHT22;13365;52.208;5.488;2022-10-16T14:09:54;23.40;76.80
25440;DHT22;13365;52.208;5.488;2022-10-16T14:12:21;23.20;77.20
25440;DHT22;13365;52.208;5.488;2022-10-16T14:14:51;23.10;78.10
25440;DHT22;13365;52.208;5.488;2022-10-16T14:17:23;23.30;78.80
25440;DHT22;13365;52.208;5.488;2022-10-16T14:19:51;23.40;78.80
25440;DHT22;13365;52.208;5.488;2022-10-16T14:22:28;23.50;77.80
25440;DHT22;13365;52.208;5.488;2022-10-16T14:24:55;23.30;78.80
25440;DHT22;13365;52.208;5.488;2022-10-16T14:27:35;23.20;77.70
25440;DHT22;13365;52.208;5.488;2022-10-16T14:30:21;23.20;77.30
25440;DHT22;13365;52.208;5.488;2022-10-16T14:33:04;23.10;77.10
25440;DHT22;13365;52.208;5.488;2022-10-16T14:35:36;23.10;77.90
25440;DHT22;13365;52.208;5.488;2022-10-16T14:38:04;23.00;77.70
25440;DHT22;13365;52.208;5.488;2022-10-16T14:40:35;23.00;77.60
25440;DHT22;13365;52.208;5.488;2022-10-16T14:43:03;23.10;78.60
25440;DHT22;13365;52.208;5.488;2022-10-16T14:45:31;23.30;78.90
25440;DHT22;13365;52.208;5.488;2022-10-16T14:48:00;23.30;80.30
25440;DHT22;13365;52.208;5.488;2022-10-16T14:50:26;23.40;80.70
25440;DHT22;13365;52.208;5.488;2022-10-16T14:52:52;23.40;80.30
25440;DHT22;13365;52.208;5.488;2022-10-16T14:55:18;23.40;79.70
25440;DHT22;13365;52.208;5.488;2022-10-16T14:57:44;23.20;78.20
25440;DHT22;13365;52.208;5.488;2022-10-16T15:00:19;23.10;77.90
25440;DHT22;13365;52.208;5.488;2022-10-16T15:02:46;23.20;78.90
25440;DHT22;13365;52.208;5.488;2022-10-16T15:05:19;23.20;79.50
25440;DHT22;13365;52.208;5.488;2022-10-16T15:07:46;23.30;78.30
25440;DHT22;13365;52.208;5.488;2022-10-16T15:10:13;23.30;77.70
25440;DHT22;13365;52.208;5.488;2022-10-16T15:12:39;23.40;78.70
25440;DHT22;13365;52.208;5.488;2022-10-16T15:17:49;23.30;80.60
25440;DHT22;13365;52.208;5.488;2022-10-16T15:20:18;23.40;80.40
25440;DHT22;13365;52.208;5.488;2022-10-16T15:22:43;23.40;80.20
25440;DHT22;13365;52.208;5.488;2022-10-16T15:27:50;23.50;81.50
25440;DHT22;13365;52.208;5.488;2022-10-16T15:30:15;23.40;80.40
25440;DHT22;13365;52.208;5.488;2022-10-16T15:32:41;23.40;80.70
25440;DHT22;13365;52.208;5.488;2022-10-16T15:35:09;23.30;80.90
25440;DHT22;13365;52.208;5.488;2022-10-16T15:37:34;23.40;80.70
25440;DHT22;13365;52.208;5.488;2022-10-16T15:40:00;23.30;80.70
25440;DHT22;13365;52.208;5.488;2022-10-16T15:42:25;23.10;80.90
25440;DHT22;13365;52.208;5.488;2022-10-16T15:44:51;23.10;81.40
25440;DHT22;13365;52.208;5.488;2022-10-16T15:47:16;23.10;81.70
25440;DHT22;13365;52.208;5.488;2022-10-16T15:49:42;23.00;81.60
25440;DHT22;13365;52.208;5.488;2022-10-16T15:52:07;22.90;81.90
25440;DHT22;13365;52.208;5.488;2022-10-16T15:54:33;22.90;82.30
25440;DHT22;13365;52.208;5.488;2022-10-16T15:56:58;22.70;82.50
25440;DHT22;13365;52.208;5.488;2022-10-16T15:59:24;22.70;82.80
25440;DHT22;13365;52.208;5.488;2022-10-16T16:01:49;22.50;82.60
25440;DHT22;13365;52.208;5.488;2022-10-16T16:04:15;22.40;82.90
25440;DHT22;13365;52.208;5.488;2022-10-16T16:06:42;22.30;83.30
25440;DHT22;13365;52.208;5.488;2022-10-16T16:09:10;22.50;83.30
25440;DHT22;13365;52.208;5.488;2022-10-16T16:11:36;22.40;83.10
25440;DHT22;13365;52.208;5.488;2022-10-16T16:14:04;22.30;83.50
25440;DHT22;13365;52.208;5.488;2022-10-16T16:16:30;22.30;83.60
25440;DHT22;13365;52.208;5.488;2022-10-16T16:18:57;22.30;83.50
25440;DHT22;13365;52.208;5.488;2022-10-16T16:21:22;22.20;83.80
25440;DHT22;13365;52.208;5.488;2022-10-16T16:23:48;22.30;84.20
25440;DHT22;13365;52.208;5.488;2022-10-16T16:26:24;22.10;84.40
25440;DHT22;13365;52.208;5.488;2022-10-16T16:28:52;22.10;84.50
25440;DHT22;13365;52.208;5.488;2022-10-16T16:31:18;22.00;84.70
25440;DHT22;13365;52.208;5.488;2022-10-16T16:33:43;21.90;85.80
25440;DHT22;13365;52.208;5.488;2022-10-16T16:36:09;21.90;85.10
25440;DHT22;13365;52.208;5.488;2022-10-16T16:38:34;21.90;85.30
25440;DHT22;13365;52.208;5.488;2022-10-16T16:41:14;21.70;85.50
25440;DHT22;13365;52.208;5.488;2022-10-16T16:43:39;21.60;85.70
25440;DHT22;13365;52.208;5.488;2022-10-16T16:46:05;21.60;86.30
25440;DHT22;13365;52.208;5.488;2022-10-16T16:48:32;21.60;85.90
25440;DHT22;13365;52.208;5.488;2022-10-16T16:51:06;21.50;85.70
25440;DHT22;13365;52.208;5.488;2022-10-16T16:53:36;21.50;85.70
25440;DHT22;13365;52.208;5.488;2022-10-16T16:56:04;21.50;85.60
25440;DHT22;13365;52.208;5.488;2022-10-16T16:58:30;21.50;85.70
25440;DHT22;13365;52.208;5.488;2022-10-16T17:00:55;21.40;85.80
25440;DHT22;13365;52.208;5.488;2022-10-16T17:03:21;21.40;86.00
25440;DHT22;13365;52.208;5.488;2022-10-16T17:06:01;21.20;86.00
25440;DHT22;13365;52.208;5.488;2022-10-16T17:08:26;21.10;86.50
25440;DHT22;13365;52.208;5.488;2022-10-16T17:10:52;20.90;86.90
25440;DHT22;13365;52.208;5.488;2022-10-16T17:13:21;20.90;87.30
25440;DHT22;13365;52.208;5.488;2022-10-16T17:15:48;20.80;87.40
25440;DHT22;13365;52.208;5.488;2022-10-16T17:18:15;20.70;87.60
25440;DHT22;13365;52.208;5.488;2022-10-16T17:20:41;20.70;88.00
25440;DHT22;13365;52.208;5.488;2022-10-16T17:23:08;20.50;88.60
25440;DHT22;13365;52.208;5.488;2022-10-16T17:25:40;20.50;88.80